Wetterdaten: aktuell Freitag, 21.09.2018 02:00
Datum Zeit Temp. A. Feuchte A. Luftdruck Regen Wind Richtung Richtung Taupunkt Windchill Windben
21.09.2018 02:00 18,9 C 66 % 1007,1 hPa 0,0 l/m 3,4 km/h (1 Bft) N-NW 346 12,4 C 18,9 C 9,7 km/h (2 Bft)
21.09.2018 01:45 18,9 C 65 % 1007,4 hPa 0,0 l/m 2,4 km/h (1 Bft) N 355 12,2 C 18,9 C 6,4 km/h (2 Bft)
21.09.2018 01:30 19,2 C 65 % 1007,6 hPa 0,0 l/m 2,4 km/h (1 Bft) N-NW 348 12,5 C 19,2 C 8,0 km/h (2 Bft)
21.09.2018 01:15 19,2 C 65 % 1007,7 hPa 0,0 l/m 3,1 km/h (1 Bft) N 360 12,5 C 19,2 C 11,3 km/h (2 Bft)
21.09.2018 01:00 18,8 C 67 % 1007,8 hPa 0,0 l/m 2,4 km/h (1 Bft) N-NW 345 12,5 C 18,8 C 9,7 km/h (2 Bft)
21.09.2018 00:45 18,6 C 68 % 1008,0 hPa 0,0 l/m 1,5 km/h (1 Bft) N-NW 344 12,6 C 18,6 C 6,4 km/h (2 Bft)
21.09.2018 00:30 18,6 C 69 % 1008,2 hPa 0,0 l/m 1,2 km/h (1 Bft) N-NW 337 12,8 C 18,6 C 4,8 km/h (1 Bft)
21.09.2018 00:15 18,9 C 68 % 1008,5 hPa 0,0 l/m 1,4 km/h (1 Bft) N 360 12,9 C 18,9 C 6,4 km/h (2 Bft)
21.09.2018 00:00 18,8 C 69 % 1008,8 hPa 0,0 l/m 2,7 km/h (1 Bft) N 359 13,0 C 18,8 C 9,7 km/h (2 Bft)
20.09.2018 23:45 17,9 C 72 % 1009,1 hPa 0,0 l/m 1,5 km/h (1 Bft) N 359 12,8 C 17,9 C 9,7 km/h (2 Bft)
20.09.2018 23:30 17,9 C 72 % 1009,3 hPa 0,0 l/m 0,8 km/h (0 Bft) N-NW 348 12,8 C 17,9 C 3,2 km/h (1 Bft)
20.09.2018 23:15 18,0 C 72 % 1009,5 hPa 0,0 l/m 0,7 km/h (0 Bft) N 349 12,9 C 18,0 C 3,2 km/h (1 Bft)
20.09.2018 23:00 18,1 C 71 % 1009,6 hPa 0,0 l/m 1,3 km/h (1 Bft) N 349 12,8 C 18,1 C 3,2 km/h (1 Bft)
20.09.2018 22:45 18,3 C 71 % 1009,8 hPa 0,0 l/m 1,6 km/h (1 Bft) N 349 12,9 C 18,3 C 4,8 km/h (1 Bft)
20.09.2018 22:30 18,4 C 70 % 1010,0 hPa 0,0 l/m 1,4 km/h (1 Bft) N 354 12,8 C 18,4 C 3,2 km/h (1 Bft)
20.09.2018 22:15 18,6 C 70 % 1010,2 hPa 0,0 l/m 1,7 km/h (1 Bft) N 354 13,0 C 18,6 C 4,8 km/h (1 Bft)
20.09.2018 22:00 18,7 C 70 % 1010,3 hPa 0,0 l/m 1,9 km/h (1 Bft) N 355 13,1 C 18,7 C 4,8 km/h (1 Bft)
20.09.2018 21:45 18,9 C 69 % 1010,5 hPa 0,0 l/m 1,0 km/h (0 Bft) N 359 13,1 C 18,9 C 3,2 km/h (1 Bft)
20.09.2018 21:30 19,2 C 69 % 1010,6 hPa 0,0 l/m 0,6 km/h (0 Bft) N 359 13,4 C 19,2 C 1,6 km/h (1 Bft)
20.09.2018 21:15 19,4 C 68 % 1010,7 hPa 0,0 l/m 0,1 km/h (0 Bft) N 359 13,3 C 19,4 C 1,6 km/h (1 Bft)
20.09.2018 21:00 19,9 C 67 % 1010,8 hPa 0,0 l/m 0,3 km/h (0 Bft) N 359 13,6 C 19,9 C 1,6 km/h (1 Bft)
20.09.2018 20:45 20,3 C 66 % 1010,9 hPa 0,0 l/m 0,0 km/h (0 Bft) N 359 13,7 C 20,3 C 0,0 km/h (0 Bft)
20.09.2018 20:30 20,8 C 64 % 1011,0 hPa 0,0 l/m 0,0 km/h (0 Bft) N 359 13,7 C 20,8 C 0,0 km/h (0 Bft)
20.09.2018 20:15 21,3 C 62 % 1011,2 hPa 0,0 l/m 0,0 km/h (0 Bft) N 359 13,7 C 21,3 C 0,0 km/h (0 Bft)
20.09.2018 20:00 21,8 C 60 % 1011,1 hPa 0,0 l/m 0,0 km/h (0 Bft) N 359 13,7 C 21,8 C 1,6 km/h (1 Bft)
20.09.2018 19:45 22,2 C 59 % 1011,3 hPa 0,0 l/m 0,9 km/h (0 Bft) N 359 13,8 C 22,2 C 4,8 km/h (1 Bft)
20.09.2018 19:30 22,6 C 58 % 1011,3 hPa 0,0 l/m 0,6 km/h (0 Bft) N 359 13,9 C 22,6 C 3,2 km/h (1 Bft)
20.09.2018 19:15 22,9 C 57 % 1011,5 hPa 0,0 l/m 1,8 km/h (1 Bft) N 359 13,9 C 22,9 C 8,0 km/h (2 Bft)
20.09.2018 19:00 23,3 C 56 % 1011,6 hPa 0,0 l/m 3,3 km/h (1 Bft) N 3 14,0 C 23,3 C 9,7 km/h (2 Bft)
20.09.2018 18:45 23,7 C 55 % 1012,0 hPa 0,0 l/m 5,7 km/h (1 Bft) NO 41 14,1 C 23,7 C 19,3 km/h (3 Bft)
20.09.2018 18:30 23,9 C 54 % 1012,2 hPa 0,0 l/m 7,9 km/h (2 Bft) N 358 14,0 C 23,5 C 22,5 km/h (4 Bft)
20.09.2018 18:15 24,1 C 54 % 1012,3 hPa 0,0 l/m 8,7 km/h (2 Bft) N-NO 13 14,2 C 23,5 C 20,9 km/h (4 Bft)
20.09.2018 18:00 24,1 C 54 % 1012,5 hPa 0,0 l/m 9,6 km/h (2 Bft) N-NO 30 14,2 C 23,3 C 22,5 km/h (4 Bft)
20.09.2018 17:45 24,2 C 53 % 1012,6 hPa 0,0 l/m 9,4 km/h (2 Bft) N-NO 16 14,0 C 23,4 C 24,1 km/h (4 Bft)
20.09.2018 17:30 24,3 C 53 % 1012,8 hPa 0,0 l/m 11,8 km/h (2 Bft) N 360 14,1 C 23,0 C 27,4 km/h (4 Bft)
20.09.2018 17:15 24,4 C 52 % 1012,9 hPa 0,0 l/m 7,4 km/h (2 Bft) NO 48 13,9 C 24,1 C 22,5 km/h (4 Bft)
20.09.2018 17:00 24,4 C 52 % 1013,1 hPa 0,0 l/m 11,5 km/h (2 Bft) N-NO 19 13,9 C 23,2 C 25,7 km/h (4 Bft)
20.09.2018 16:45 24,7 C 52 % 1013,4 hPa 0,0 l/m 12,2 km/h (2 Bft) N-NW 344 14,2 C 23,4 C 30,6 km/h (5 Bft)
20.09.2018 16:30 25,3 C 51 % 1013,6 hPa 0,0 l/m 7,9 km/h (2 Bft) N 5 14,4 C 24,9 C 24,1 km/h (4 Bft)
20.09.2018 16:15 25,1 C 51 % 1013,6 hPa 0,0 l/m 13,4 km/h (3 Bft) N-NO 19 14,2 C 23,7 C 32,2 km/h (5 Bft)
20.09.2018 16:00 25,1 C 52 % 1013,8 hPa 0,0 l/m 11,4 km/h (2 Bft) NO 36 14,5 C 24,0 C 25,7 km/h (4 Bft)
20.09.2018 15:45 25,3 C 51 % 1014,1 hPa 0,0 l/m 10,2 km/h (2 Bft) NO 39 14,4 C 24,5 C 22,5 km/h (4 Bft)
20.09.2018 15:30 24,8 C 51 % 1014,1 hPa 0,0 l/m 11,1 km/h (2 Bft) N-NO 14 14,0 C 23,7 C 24,1 km/h (4 Bft)
20.09.2018 15:16 24,9 C 52 % 1014,3 hPa 0,0 l/m 12,5 km/h (3 Bft) NO 54 14,4 C 23,6 C 30,6 km/h (5 Bft)
20.09.2018 15:00 24,9 C 52 % 1014,3 hPa 0,0 l/m 12,3 km/h (3 Bft) O 85 14,4 C 23,6 C 30,6 km/h (5 Bft)
20.09.2018 14:45 24,6 C 52 % 1014,5 hPa 0,0 l/m 14,1 km/h (3 Bft) NO 43 14,1 C 23,0 C 32,2 km/h (5 Bft)
20.09.2018 14:30 24,3 C 54 % 1014,7 hPa 0,0 l/m 14,5 km/h (3 Bft) N 11 14,4 C 22,5 C 35,4 km/h (5 Bft)
20.09.2018 14:15 24,4 C 53 % 1014,9 hPa 0,0 l/m 14,8 km/h (3 Bft) NO 41 14,2 C 22,6 C 35,4 km/h (5 Bft)
20.09.2018 14:00 24,9 C 54 % 1015,1 hPa 0,0 l/m 11,4 km/h (2 Bft) N-NO 15 14,9 C 23,8 C 33,8 km/h (5 Bft)
20.09.2018 13:45 24,5 C 54 % 1015,2 hPa 0,0 l/m 13,3 km/h (3 Bft) N 10 14,6 C 23,0 C 35,4 km/h (5 Bft)
20.09.2018 13:31 24,0 C 57 % 1015,2 hPa 0,0 l/m 9,7 km/h (2 Bft) N-NO 32 14,9 C 23,1 C 33,8 km/h (5 Bft)
20.09.2018 13:15 23,8 C 57 % 1015,1 hPa 0,0 l/m 12,4 km/h (3 Bft) NO 50 14,8 C 22,3 C 35,4 km/h (5 Bft)
20.09.2018 13:00 24,3 C 56 % 1015,2 hPa 0,0 l/m 12,1 km/h (2 Bft) N 8 14,9 C 23,0 C 32,2 km/h (5 Bft)
20.09.2018 12:45 24,3 C 56 % 1015,1 hPa 0,0 l/m 11,7 km/h (2 Bft) N-NO 26 14,9 C 23,0 C 33,8 km/h (5 Bft)
20.09.2018 12:30 24,1 C 58 % 1015,3 hPa 0,0 l/m 10,0 km/h (2 Bft) NO 37 15,3 C 23,2 C 22,5 km/h (4 Bft)
20.09.2018 12:15 23,3 C 60 % 1015,4 hPa 0,0 l/m 11,7 km/h (2 Bft) O-NO 67 15,1 C 21,9 C 29,0 km/h (5 Bft)
20.09.2018 12:00 23,1 C 61 % 1015,5 hPa 0,0 l/m 11,9 km/h (2 Bft) N 9 15,2 C 21,6 C 30,6 km/h (5 Bft)
20.09.2018 11:45 23,1 C 62 % 1015,7 hPa 0,0 l/m 10,1 km/h (2 Bft) N 360 15,4 C 22,0 C 25,7 km/h (4 Bft)
20.09.2018 11:30 22,4 C 64 % 1015,7 hPa 0,0 l/m 10,1 km/h (2 Bft) N 10 15,2 C 21,3 C 25,7 km/h (4 Bft)
20.09.2018 11:15 22,2 C 65 % 1015,9 hPa 0,0 l/m 12,7 km/h (3 Bft) NO 55 15,3 C 20,4 C 27,4 km/h (4 Bft)
20.09.2018 11:00 22,1 C 65 % 1016,1 hPa 0,0 l/m 9,0 km/h (2 Bft) NO 47 15,2 C 21,2 C 25,7 km/h (4 Bft)
20.09.2018 10:45 21,4 C 67 % 1016,2 hPa 0,0 l/m 8,6 km/h (2 Bft) N 6 15,0 C 20,6 C 24,1 km/h (4 Bft)
20.09.2018 10:30 20,7 C 70 % 1016,2 hPa 0,0 l/m 7,1 km/h (2 Bft) NO 45 15,0 C 20,4 C 17,7 km/h (3 Bft)
20.09.2018 10:15 19,4 C 73 % 1016,2 hPa 0,0 l/m 6,0 km/h (2 Bft) N-NO 27 14,4 C 19,4 C 16,1 km/h (3 Bft)
20.09.2018 10:00 19,2 C 73 % 1016,3 hPa 0,0 l/m 6,6 km/h (2 Bft) NO 52 14,2 C 19,1 C 16,1 km/h (3 Bft)
20.09.2018 09:45 18,8 C 74 % 1016,2 hPa 0,0 l/m 6,6 km/h (2 Bft) N-NO 31 14,1 C 18,7 C 16,1 km/h (3 Bft)
20.09.2018 09:30 18,9 C 74 % 1016,3 hPa 0,0 l/m 4,4 km/h (1 Bft) N 3 14,2 C 18,9 C 14,5 km/h (3 Bft)
20.09.2018 09:15 19,2 C 72 % 1016,3 hPa 0,0 l/m 5,7 km/h (1 Bft) NO 36 14,0 C 19,2 C 16,1 km/h (3 Bft)
20.09.2018 09:00 18,7 C 75 % 1016,3 hPa 0,0 l/m 5,7 km/h (1 Bft) NO 44 14,2 C 18,7 C 14,5 km/h (3 Bft)
20.09.2018 08:45 17,8 C 77 % 1016,4 hPa 0,0 l/m 4,3 km/h (1 Bft) N-NW 347 13,7 C 17,8 C 11,3 km/h (2 Bft)
20.09.2018 08:30 17,4 C 79 % 1016,3 hPa 0,0 l/m 1,9 km/h (1 Bft) N-NO 23 13,7 C 17,4 C 9,7 km/h (2 Bft)
20.09.2018 08:15 17,0 C 80 % 1016,3 hPa 0,0 l/m 1,8 km/h (1 Bft) N-NO 25 13,5 C 17,0 C 8,0 km/h (2 Bft)
20.09.2018 08:00 16,8 C 80 % 1016,3 hPa 0,0 l/m 2,7 km/h (1 Bft) N 6 13,3 C 16,8 C 6,4 km/h (2 Bft)
20.09.2018 07:45 16,4 C 81 % 1016,3 hPa 0,0 l/m 1,7 km/h (1 Bft) N 1 13,1 C 16,4 C 6,4 km/h (2 Bft)
20.09.2018 07:30 16,3 C 81 % 1016,2 hPa 0,0 l/m 1,7 km/h (1 Bft) N-NW 340 13,0 C 16,3 C 4,8 km/h (1 Bft)
20.09.2018 07:15 16,2 C 82 % 1016,1 hPa 0,0 l/m 1,0 km/h (0 Bft) N 360 13,1 C 16,2 C 6,4 km/h (2 Bft)
20.09.2018 07:00 16,0 C 82 % 1016,2 hPa 0,0 l/m 0,0 km/h (0 Bft) N 7 12,9 C 16,0 C 1,6 km/h (1 Bft)
20.09.2018 06:45 16,1 C 81 % 1016,1 hPa 0,0 l/m 0,2 km/h (0 Bft) N 7 12,8 C 16,1 C 1,6 km/h (1 Bft)
20.09.2018 06:30 16,2 C 81 % 1016,2 hPa 0,0 l/m 0,6 km/h (0 Bft) N 7 12,9 C 16,2 C 3,2 km/h (1 Bft)
20.09.2018 06:15 16,1 C 81 % 1016,2 hPa 0,0 l/m 0,6 km/h (0 Bft) N 7 12,8 C 16,1 C 6,4 km/h (2 Bft)
20.09.2018 06:00 16,1 C 82 % 1016,3 hPa 0,0 l/m 0,6 km/h (0 Bft) N-NO 19 13,0 C 16,1 C 4,8 km/h (1 Bft)
20.09.2018 05:45 16,1 C 82 % 1016,3 hPa 0,0 l/m 0,7 km/h (0 Bft) N-NO 14 13,0 C 16,1 C 4,8 km/h (1 Bft)
20.09.2018 05:30 15,9 C 82 % 1016,3 hPa 0,0 l/m 0,4 km/h (0 Bft) N 4 12,8 C 15,9 C 3,2 km/h (1 Bft)
20.09.2018 05:15 15,8 C 82 % 1016,2 hPa 0,0 l/m 0,3 km/h (0 Bft) N 358 12,7 C 15,8 C 1,6 km/h (1 Bft)
20.09.2018 05:00 15,8 C 82 % 1016,2 hPa 0,0 l/m 0,7 km/h (0 Bft) N 358 12,7 C 15,8 C 3,2 km/h (1 Bft)
20.09.2018 04:45 15,9 C 82 % 1016,2 hPa 0,0 l/m 0,0 km/h (0 Bft) N 358 12,8 C 15,9 C 0,0 km/h (0 Bft)
20.09.2018 04:30 16,0 C 81 % 1016,3 hPa 0,0 l/m 0,0 km/h (0 Bft) N 358 12,7 C 16,0 C 1,6 km/h (1 Bft)
20.09.2018 04:15 16,1 C 81 % 1016,2 hPa 0,0 l/m 0,1 km/h (0 Bft) N 358 12,8 C 16,1 C 1,6 km/h (1 Bft)
20.09.2018 04:00 16,2 C 81 % 1016,1 hPa 0,0 l/m 0,3 km/h (0 Bft) N 358 12,9 C 16,2 C 1,6 km/h (1 Bft)
20.09.2018 03:45 16,3 C 80 % 1016,2 hPa 0,0 l/m 0,2 km/h (0 Bft) N 358 12,8 C 16,3 C 1,6 km/h (1 Bft)
20.09.2018 03:30 16,4 C 80 % 1016,2 hPa 0,0 l/m 0,0 km/h (0 Bft) N 358 12,9 C 16,4 C 1,6 km/h (1 Bft)
20.09.2018 03:15 16,6 C 79 % 1016,2 hPa 0,0 l/m 0,1 km/h (0 Bft) N 358 12,9 C 16,6 C 1,6 km/h (1 Bft)
20.09.2018 03:00 16,6 C 79 % 1016,2 hPa 0,0 l/m 0,5 km/h (0 Bft) N 358 12,9 C 16,6 C 3,2 km/h (1 Bft)
_ Min-Zeit 05:00 15:30 02:00 - 03:30 - - 01:45 05:00 04:45
Minimum _ 15,8 C 51 % 1007,1 hPa - 0,0 km/h (0 Bft) - - 12,2 C 15,8 C 0,0 km/h (0 Bft)
_ Max-Zeit 15:16 04:45 08:45 03:00 14:15 - - 11:45 16:30 13:15
Maximum _ 25,3 C 82 % 1016,4 hPa 0,0 l/m 14,8 km/h
NO (3 Bft)
- - 15,4 C 24,9 C 35,4 km/h
O-NO (5 Bft)
Durchschnitt _ 20,1 C 68 % 1013,7 hPa #0,0 l/m 4,7 km/h (1 Bft) N - 13,6 C 19,7 C 13,0 km/h (3 Bft)